Time;durP1;ratioP1;P1;durP2;ratioP2;P2;SDS_P1;SDS_P2;PMS_P1;PMS_P2;Temp;Humidity;BMP_temperature;BMP_pressure;BME280_temperature;BME280_humidity;BME280_pressure;Samples;Min_cycle;Max_cycle;Signal;HPM_P1;HPM_P2
2022/07/20 00:02:01;;;;;;;8.93;8.07;;;12.30;92.00;;;;;;4985464;28;20630;-78
2022/07/20 00:04:28;;;;;;;10.30;7.63;;;12.60;91.90;;;;;;4988687;28;20197;-77
2022/07/20 00:06:56;;;;;;;8.97;6.70;;;12.70;91.30;;;;;;4995017;28;20200;-77
2022/07/20 00:12:09;;;;;;;8.43;7.40;;;12.70;90.90;;;;;;4994834;28;20180;-74
2022/07/20 00:14:36;;;;;;;10.87;6.40;;;12.80;90.70;;;;;;4995239;28;20221;-76
2022/07/20 00:17:04;;;;;;;8.13;7.20;;;12.60;90.60;;;;;;4995802;28;20173;-75
2022/07/20 00:19:31;;;;;;;12.07;7.30;;;12.80;90.80;;;;;;4991838;28;20170;-82
2022/07/20 00:21:58;;;;;;;8.10;7.40;;;13.00;90.70;;;;;;4993696;28;20579;-81
2022/07/20 00:24:26;;;;;;;5.93;4.97;;;13.00;90.40;;;;;;4995650;28;20218;-82
2022/07/20 00:26:53;;;;;;;6.20;4.87;;;12.80;89.50;;;;;;4994933;28;20679;-81
2022/07/20 00:29:20;;;;;;;7.57;3.90;;;12.70;89.60;;;;;;4994597;28;20312;-81
2022/07/20 00:31:48;;;;;;;7.70;4.80;;;12.70;89.60;;;;;;4993831;28;20684;-80
2022/07/20 00:34:15;;;;;;;8.93;5.30;;;12.70;89.90;;;;;;4995032;28;20221;-81
2022/07/20 00:36:42;;;;;;;5.70;4.37;;;12.80;90.20;;;;;;4994933;28;20182;-87
2022/07/20 00:39:10;;;;;;;5.30;4.40;;;12.90;90.10;;;;;;4995019;28;20182;-83
2022/07/20 00:41:37;;;;;;;4.47;3.90;;;13.00;89.80;;;;;;4988463;28;20194;-82
2022/07/20 00:44:07;;;;;;;5.63;4.53;;;13.00;89.40;;;;;;4993173;28;20189;-77
2022/07/20 00:46:37;;;;;;;7.83;4.50;;;13.10;89.40;;;;;;4995043;28;20193;-81
2022/07/20 00:49:07;;;;;;;5.43;3.83;;;13.20;89.30;;;;;;4993401;28;20212;-81
2022/07/20 00:51:35;;;;;;;7.13;3.70;;;13.20;89.20;;;;;;4992455;28;20182;-82
2022/07/20 00:54:04;;;;;;;4.73;3.33;;;13.20;89.00;;;;;;4991619;28;20300;-79
2022/07/20 00:56:32;;;;;;;3.93;3.47;;;13.20;88.70;;;;;;4993257;28;20224;-79
2022/07/20 00:59:02;;;;;;;3.77;3.30;;;13.20;88.90;;;;;;4993466;28;20193;-82
2022/07/20 01:01:30;;;;;;;6.30;3.47;;;13.20;89.20;;;;;;4989043;28;20190;-82
2022/07/20 01:03:58;;;;;;;5.00;3.60;;;13.20;89.20;;;;;;4993851;28;20716;-81
2022/07/20 01:06:26;;;;;;;4.83;3.53;;;13.30;89.10;;;;;;4994391;28;20178;-79
2022/07/20 01:08:53;;;;;;;7.47;3.60;;;13.40;89.10;;;;;;4994564;28;20178;-82
2022/07/20 01:11:21;;;;;;;5.97;4.20;;;13.50;89.20;;;;;;4994240;28;20204;-77
2022/07/20 01:13:48;;;;;;;6.70;4.03;;;13.60;89.50;;;;;;4992665;28;20222;-77
2022/07/20 01:16:16;;;;;;;4.67;3.00;;;13.50;89.80;;;;;;4992017;28;20608;-76
2022/07/20 01:18:43;;;;;;;3.50;2.87;;;13.30;90.10;;;;;;4995182;28;20193;-75
2022/07/20 01:21:11;;;;;;;5.10;3.73;;;13.20;90.10;;;;;;4993360;28;20173;-77
2022/07/20 01:23:38;;;;;;;5.07;3.53;;;13.20;90.60;;;;;;4993704;28;20549;-75
2022/07/20 01:26:05;;;;;;;4.03;3.37;;;13.20;90.90;;;;;;4991473;28;20239;-75
2022/07/20 01:28:33;;;;;;;5.07;3.73;;;13.30;90.80;;;;;;4993939;28;20185;-76
2022/07/20 01:31:00;;;;;;;6.23;4.20;;;13.20;90.80;;;;;;4993902;28;20571;-75
2022/07/20 01:33:28;;;;;;;6.80;4.23;;;13.30;91.10;;;;;;4993390;28;20222;-73
2022/07/20 01:35:55;;;;;;;6.03;4.10;;;13.20;90.30;;;;;;4990294;28;20276;-75
2022/07/20 01:38:22;;;;;;;6.90;4.10;;;13.30;90.80;;;;;;4993638;28;20190;-78
2022/07/20 01:40:50;;;;;;;7.10;4.23;;;13.20;90.00;;;;;;4994076;28;20541;-74
2022/07/20 01:43:17;;;;;;;10.50;4.90;;;13.30;90.30;;;;;;4993671;28;20178;-76
2022/07/20 01:45:45;;;;;;;4.17;3.47;;;13.50;90.20;;;;;;4993838;28;20206;-75
2022/07/20 01:48:12;;;;;;;3.83;3.53;;;13.40;89.30;;;;;;4993695;28;20197;-76
2022/07/20 01:50:40;;;;;;;3.63;2.50;;;13.60;89.20;;;;;;4993555;28;20277;-76
2022/07/20 01:53:09;;;;;;;4.40;2.63;;;13.60;88.10;;;;;;5000946;28;20312;-78
2022/07/20 01:55:36;;;;;;;7.80;2.87;;;13.80;88.20;;;;;;4992113;28;20182;-78
2022/07/20 01:58:03;;;;;;;4.53;2.50;;;14.10;88.50;;;;;;4993506;28;20182;-77
2022/07/20 02:00:31;;;;;;;5.53;2.60;;;14.30;87.60;;;;;;4993747;28;20181;-77
2022/07/20 02:02:58;;;;;;;3.03;2.03;;;14.80;87.20;;;;;;4993250;28;20549;-78
2022/07/20 02:05:26;;;;;;;5.80;2.00;;;15.20;85.30;;;;;;4993322;28;20178;-80
2022/07/20 02:07:53;;;;;;;4.33;1.80;;;15.60;83.90;;;;;;4993731;28;20178;-82
2022/07/20 02:10:20;;;;;;;4.03;1.40;;;15.50;82.30;;;;;;4994286;28;20186;-81
2022/07/20 02:12:48;;;;;;;1.93;1.30;;;15.30;83.30;;;;;;4994044;28;20178;-79
2022/07/20 02:16:14;;;;;;;2.83;1.40;;;15.00;82.30;;;;;;4980304;28;20183;-79
2022/07/20 02:18:10;;;;;;;5.57;1.73;;;15.40;82.10;;;;;;4993363;28;20169;-80
2022/07/20 02:20:38;;;;;;;3.27;1.57;;;15.20;82.60;;;;;;4993820;28;20242;-80
2022/07/20 02:23:07;;;;;;;2.03;1.03;;;15.20;81.50;;;;;;4993299;28;20183;-78
2022/07/20 02:25:37;;;;;;;4.03;1.40;;;15.60;82.20;;;;;;4995991;28;20192;-79
2022/07/20 02:28:05;;;;;;;5.13;1.23;;;15.60;81.50;;;;;;4994474;28;20190;-75
2022/07/20 02:30:33;;;;;;;4.13;1.23;;;15.80;79.10;;;;;;4993146;28;20183;-78
2022/07/20 02:33:04;;;;;;;1.87;1.00;;;16.30;79.10;;;;;;4992808;28;20354;-81
2022/07/20 02:35:32;;;;;;;1.93;1.00;;;16.80;77.90;;;;;;4993468;28;20178;-82
2022/07/20 02:37:59;;;;;;;2.80;1.00;;;16.90;75.20;;;;;;4993428;28;20712;-77
2022/07/20 02:40:27;;;;;;;3.30;1.13;;;16.30;76.10;;;;;;4993329;28;20647;-75
2022/07/20 02:42:54;;;;;;;2.80;1.10;;;16.30;77.50;;;;;;4998510;28;20202;-82
2022/07/20 02:45:24;;;;;;;1.80;1.00;;;16.10;77.10;;;;;;4993183;28;20164;-76
2022/07/20 02:47:52;;;;;;;2.97;1.17;;;15.70;78.00;;;;;;4992699;28;20191;-81
2022/07/20 02:50:19;;;;;;;1.30;0.90;;;15.60;79.00;;;;;;4992932;28;20643;-78
2022/07/20 02:52:46;;;;;;;2.70;0.90;;;15.30;79.60;;;;;;4992894;28;20180;-76
2022/07/20 02:55:14;;;;;;;5.00;0.90;;;15.00;80.70;;;;;;4992984;28;20185;-76
2022/07/20 02:57:41;;;;;;;4.20;1.10;;;15.00;80.70;;;;;;4991964;28;20266;-79
2022/07/20 03:00:10;;;;;;;1.57;0.90;;;14.90;80.50;;;;;;4992295;28;20651;-75
2022/07/20 03:02:37;;;;;;;4.53;1.07;;;14.80;81.00;;;;;;4981288;28;20183;-74
2022/07/20 03:05:05;;;;;;;2.07;1.20;;;15.00;81.20;;;;;;4991127;28;20190;-77
2022/07/20 03:07:32;;;;;;;2.50;1.30;;;15.00;81.10;;;;;;4995687;28;20189;-78
2022/07/20 03:10:00;;;;;;;3.23;1.30;;;15.30;80.10;;;;;;4995724;28;20209;-77
2022/07/20 03:12:27;;;;;;;4.57;1.70;;;15.70;79.50;;;;;;4995402;28;20536;-73
2022/07/20 03:14:55;;;;;;;2.70;1.53;;;15.70;78.10;;;;;;4994268;28;20222;-78
2022/07/20 03:17:22;;;;;;;3.40;1.50;;;15.80;77.90;;;;;;5005558;28;20184;-76
2022/07/20 03:19:50;;;;;;;3.87;1.50;;;16.10;77.40;;;;;;4994419;28;20224;-76
2022/07/20 03:22:17;;;;;;;6.23;1.40;;;16.30;77.30;;;;;;4995830;28;20274;-78
2022/07/20 03:24:45;;;;;;;3.00;1.20;;;16.20;75.90;;;;;;4995355;28;20263;-80
2022/07/20 03:27:12;;;;;;;1.70;0.97;;;16.10;74.10;;;;;;4981019;28;20208;-75
2022/07/20 03:29:39;;;;;;;2.60;1.10;;;16.00;75.20;;;;;;4993992;28;20192;-78
2022/07/20 03:32:07;;;;;;;4.57;1.27;;;15.90;76.10;;;;;;4990826;28;20719;-76
2022/07/20 03:34:34;;;;;;;5.47;1.23;;;15.80;75.10;;;;;;4995345;28;20226;-81
2022/07/20 03:37:01;;;;;;;3.37;1.10;;;15.50;77.20;;;;;;4998264;28;20243;-78
2022/07/20 03:39:29;;;;;;;2.90;1.33;;;15.70;77.10;;;;;;4996293;28;20709;-78
2022/07/20 03:41:57;;;;;;;2.70;1.20;;;15.70;75.30;;;;;;4994726;28;20196;-76
2022/07/20 03:44:24;;;;;;;4.33;1.40;;;15.90;75.20;;;;;;4995685;28;20607;-78
2022/07/20 03:46:51;;;;;;;4.03;1.47;;;16.20;74.90;;;;;;4995960;28;20181;-79
2022/07/20 03:49:19;;;;;;;5.07;1.67;;;16.90;72.00;;;;;;4995933;28;20184;-78
2022/07/20 03:51:46;;;;;;;2.37;1.17;;;17.50;69.80;;;;;;4995693;28;20247;-78
2022/07/20 03:54:13;;;;;;;3.23;1.00;;;18.00;69.80;;;;;;4994861;28;20254;-78
2022/07/20 03:56:41;;;;;;;5.40;1.20;;;18.60;66.70;;;;;;4986193;28;20185;-79
2022/07/20 03:59:10;;;;;;;4.53;1.47;;;18.30;67.00;;;;;;4992554;28;20661;-78
2022/07/20 04:01:38;;;;;;;4.30;1.10;;;18.40;64.80;;;;;;4989058;28;20516;-84
2022/07/20 04:04:06;;;;;;;2.30;1.10;;;18.60;65.20;;;;;;4995499;28;20186;-80
2022/07/20 04:06:33;;;;;;;5.07;1.00;;;18.80;64.60;;;;;;4995875;28;20174;-76
2022/07/20 04:09:01;;;;;;;4.40;1.23;;;18.00;65.30;;;;;;4995660;28;20186;-83
2022/07/20 04:11:29;;;;;;;3.50;1.37;;;18.60;66.00;;;;;;4995626;28;20526;-84
2022/07/20 04:13:57;;;;;;;3.90;1.40;;;18.50;64.50;;;;;;4995415;28;20711;-82
2022/07/20 04:16:24;;;;;;;3.93;1.00;;;18.70;66.80;;;;;;4995550;28;20174;-84
2022/07/20 04:18:51;;;;;;;2.77;1.00;;;19.00;65.20;;;;;;4996085;28;20185;-80
2022/07/20 04:21:19;;;;;;;2.63;0.80;;;18.20;67.90;;;;;;4995753;28;20217;-78
2022/07/20 04:23:46;;;;;;;4.53;1.00;;;17.30;69.60;;;;;;5003429;28;20177;-82
2022/07/20 04:26:13;;;;;;;4.57;1.20;;;16.40;72.50;;;;;;4995592;28;20184;-76
2022/07/20 04:28:41;;;;;;;3.10;1.10;;;16.00;75.10;;;;;;4995530;28;20206;-79
2022/07/20 04:31:08;;;;;;;2.93;1.30;;;15.50;76.40;;;;;;4995566;28;20232;-78
2022/07/20 04:33:35;;;;;;;5.60;1.10;;;15.30;77.10;;;;;;5003216;28;20214;-80
2022/07/20 04:36:03;;;;;;;5.80;1.10;;;15.00;77.90;;;;;;5007446;28;20205;-78
2022/07/20 04:38:30;;;;;;;8.23;1.00;;;14.90;78.70;;;;;;4995334;28;20172;-82
2022/07/20 04:40:58;;;;;;;1.87;1.10;;;15.00;79.00;;;;;;4995304;28;20175;-77
2022/07/20 04:43:25;;;;;;;4.20;1.10;;;15.00;79.30;;;;;;4992731;28;20181;-78
2022/07/20 04:45:52;;;;;;;4.80;1.20;;;15.20;79.20;;;;;;4990156;28;20183;-79
2022/07/20 04:48:20;;;;;;;3.97;0.90;;;15.40;79.40;;;;;;4986515;28;20651;-80
2022/07/20 04:50:48;;;;;;;2.93;1.00;;;15.50;78.20;;;;;;4994824;28;20228;-80
2022/07/20 04:53:15;;;;;;;2.60;1.00;;;15.40;78.80;;;;;;4985370;28;20684;-79
2022/07/20 04:55:42;;;;;;;4.50;1.30;;;15.30;78.70;;;;;;4994482;28;20614;-79
2022/07/20 04:58:10;;;;;;;2.30;1.20;;;15.30;78.00;;;;;;4993868;28;20190;-78
2022/07/20 05:00:37;;;;;;;3.13;1.20;;;15.20;78.00;;;;;;4992739;28;20197;-77
2022/07/20 05:03:04;;;;;;;2.20;1.23;;;15.30;78.60;;;;;;4994063;28;20229;-77
2022/07/20 05:05:32;;;;;;;2.07;1.03;;;15.10;78.10;;;;;;4992457;28;20353;-76
2022/07/20 05:07:59;;;;;;;3.20;0.93;;;15.10;78.90;;;;;;4990272;28;20194;-76
2022/07/20 05:10:26;;;;;;;5.53;0.80;;;14.70;79.40;;;;;;4990647;28;20597;-76
2022/07/20 05:12:54;;;;;;;1.47;0.67;;;14.30;81.00;;;;;;4994444;28;20216;-76
2022/07/20 05:15:23;;;;;;;1.63;1.03;;;14.20;82.20;;;;;;4988909;28;20582;-74
2022/07/20 05:17:51;;;;;;;1.40;0.70;;;14.10;83.20;;;;;;4993309;28;20192;-75
2022/07/20 05:20:19;;;;;;;3.27;1.00;;;14.10;83.00;;;;;;4993934;28;20555;-76
2022/07/20 05:22:46;;;;;;;3.03;0.90;;;14.10;83.30;;;;;;4994451;28;20182;-76
2022/07/20 05:25:14;;;;;;;2.30;0.90;;;14.10;83.70;;;;;;4993264;28;20182;-76
2022/07/20 05:27:41;;;;;;;1.93;0.93;;;14.00;83.70;;;;;;4985803;28;20186;-77
2022/07/20 05:30:09;;;;;;;3.10;1.00;;;14.00;83.90;;;;;;4989518;28;20264;-77
2022/07/20 05:32:36;;;;;;;5.33;1.30;;;14.10;84.30;;;;;;5011231;28;20316;-76
2022/07/20 05:35:05;;;;;;;1.93;1.00;;;14.10;83.60;;;;;;5013422;28;20213;-76
2022/07/20 05:37:32;;;;;;;2.80;1.10;;;14.20;83.90;;;;;;5011416;28;20240;-76
2022/07/20 05:40:00;;;;;;;1.57;1.00;;;14.30;83.60;;;;;;5010838;28;20258;-76
2022/07/20 05:42:27;;;;;;;2.70;1.30;;;14.20;82.80;;;;;;5012688;28;20173;-78
2022/07/20 05:44:54;;;;;;;4.47;1.77;;;14.30;83.10;;;;;;5013270;28;20176;-82
2022/07/20 05:47:23;;;;;;;4.33;1.80;;;14.30;82.70;;;;;;5012762;28;20184;-79
2022/07/20 05:49:50;;;;;;;3.90;1.50;;;14.20;82.80;;;;;;5009607;28;20186;-76
2022/07/20 05:52:18;;;;;;;5.20;1.60;;;14.10;82.20;;;;;;5011128;28;20537;-79
2022/07/20 05:54:45;;;;;;;4.60;1.80;;;14.20;82.70;;;;;;5013075;28;20212;-82
2022/07/20 05:57:12;;;;;;;5.73;1.57;;;14.20;82.80;;;;;;5011873;28;20189;-82
2022/07/20 05:59:40;;;;;;;3.70;1.30;;;14.20;83.10;;;;;;4982830;28;20185;-77
2022/07/20 06:02:08;;;;;;;2.43;1.30;;;14.10;83.50;;;;;;5005677;28;20213;-82
2022/07/20 06:04:37;;;;;;;1.43;1.03;;;14.00;83.00;;;;;;5001730;28;20188;-79
2022/07/20 06:07:05;;;;;;;3.33;1.10;;;14.00;83.30;;;;;;5010828;28;20181;-79
2022/07/20 06:09:32;;;;;;;2.57;1.03;;;13.90;83.60;;;;;;5010275;28;20185;-78
2022/07/20 06:11:59;;;;;;;2.77;1.37;;;13.80;84.00;;;;;;5012539;28;20181;-82
2022/07/20 06:14:27;;;;;;;2.43;1.50;;;13.80;84.40;;;;;;5011427;28;20674;-78
2022/07/20 06:16:54;;;;;;;3.87;1.60;;;13.80;84.80;;;;;;5010602;28;20189;-78
2022/07/20 06:19:22;;;;;;;3.23;1.70;;;13.80;85.10;;;;;;5009491;28;20173;-78
2022/07/20 06:21:49;;;;;;;2.47;1.40;;;13.80;85.30;;;;;;5011064;28;20715;-80
2022/07/20 06:24:16;;;;;;;2.70;1.40;;;13.70;85.20;;;;;;5007867;28;20181;-76
2022/07/20 06:26:44;;;;;;;2.57;1.43;;;13.70;84.90;;;;;;5011359;28;20185;-75
2022/07/20 06:29:11;;;;;;;3.37;1.60;;;13.70;85.00;;;;;;5011954;28;20672;-73
2022/07/20 06:31:38;;;;;;;2.07;1.83;;;13.60;85.40;;;;;;5006937;28;20269;-76
2022/07/20 06:34:06;;;;;;;2.83;1.80;;;13.50;85.90;;;;;;4992163;28;20304;-73
2022/07/20 06:36:34;;;;;;;2.80;1.40;;;13.50;85.80;;;;;;4989917;28;20182;-78
2022/07/20 06:39:02;;;;;;;1.90;1.40;;;13.40;85.90;;;;;;4992684;28;20201;-77
2022/07/20 06:41:29;;;;;;;2.00;1.33;;;13.30;86.10;;;;;;4995021;28;20252;-73
2022/07/20 06:43:57;;;;;;;4.80;1.77;;;13.30;86.20;;;;;;4996187;28;20666;-78
2022/07/20 06:46:24;;;;;;;2.90;1.63;;;13.20;86.50;;;;;;4995686;28;20521;-74
2022/07/20 06:48:51;;;;;;;2.73;1.60;;;13.20;87.20;;;;;;4996599;28;20186;-78
2022/07/20 06:51:18;;;;;;;2.43;1.70;;;13.10;87.40;;;;;;4995727;28;20201;-75
2022/07/20 06:53:46;;;;;;;3.87;1.73;;;13.20;87.60;;;;;;4990056;28;20289;-74
2022/07/20 06:56:13;;;;;;;3.90;1.90;;;13.20;87.80;;;;;;4996199;28;20186;-73
2022/07/20 06:58:40;;;;;;;4.80;2.03;;;13.10;87.70;;;;;;4999538;28;20193;-77
2022/07/20 07:01:08;;;;;;;4.27;1.93;;;13.00;87.70;;;;;;4991516;28;20244;-78
2022/07/20 07:03:35;;;;;;;2.60;1.90;;;13.10;88.10;;;;;;4988439;28;20217;-74
2022/07/20 07:06:02;;;;;;;3.83;2.20;;;13.10;88.10;;;;;;4994116;28;20193;-76
2022/07/20 07:08:30;;;;;;;3.13;2.00;;;13.00;88.10;;;;;;4995372;28;20649;-74
2022/07/20 07:10:57;;;;;;;6.93;3.37;;;13.00;88.10;;;;;;4996488;28;20217;-76
2022/07/20 07:13:24;;;;;;;9.03;5.80;;;13.00;88.50;;;;;;4993057;28;20676;-81
2022/07/20 07:15:51;;;;;;;6.73;2.80;;;13.00;88.40;;;;;;4996132;28;20185;-79
2022/07/20 07:18:19;;;;;;;4.50;1.97;;;12.80;88.40;;;;;;4995060;28;20217;-77
2022/07/20 07:20:46;;;;;;;4.43;2.40;;;12.90;88.60;;;;;;4987412;28;20662;-79
2022/07/20 07:23:13;;;;;;;2.70;2.00;;;12.80;88.40;;;;;;4995203;28;20304;-86
2022/07/20 07:25:41;;;;;;;4.07;2.23;;;12.80;88.40;;;;;;4988993;28;20186;-78
2022/07/20 07:28:08;;;;;;;6.73;2.40;;;12.80;88.70;;;;;;4995682;28;20660;-77
2022/07/20 07:30:36;;;;;;;4.53;2.50;;;12.70;88.90;;;;;;4984187;28;20206;-76
2022/07/20 07:33:03;;;;;;;4.53;2.50;;;12.80;89.00;;;;;;4995017;28;20577;-78
2022/07/20 07:35:30;;;;;;;5.53;2.50;;;12.80;89.10;;;;;;4994036;28;20640;-77
2022/07/20 07:37:58;;;;;;;7.83;2.87;;;12.70;89.20;;;;;;4987995;28;20289;-81
2022/07/20 07:40:25;;;;;;;5.33;3.30;;;12.80;89.30;;;;;;4996210;28;20196;-78
2022/07/20 07:42:52;;;;;;;8.70;3.63;;;12.80;89.40;;;;;;4990841;28;20246;-78
2022/07/20 07:45:20;;;;;;;9.17;5.30;;;12.80;89.70;;;;;;4991912;28;20297;-78
2022/07/20 07:47:47;;;;;;;10.20;5.13;;;12.80;89.80;;;;;;4992498;28;20170;-80
2022/07/20 07:50:15;;;;;;;6.97;3.50;;;12.80;89.70;;;;;;4995494;28;20268;-81
2022/07/20 07:52:42;;;;;;;6.83;3.50;;;12.80;89.80;;;;;;4989169;28;20283;-81
2022/07/20 07:55:10;;;;;;;7.27;3.00;;;12.80;89.60;;;;;;4984781;28;20224;-81
2022/07/20 07:57:37;;;;;;;12.50;4.50;;;12.80;89.70;;;;;;4994494;28;20257;-76
2022/07/20 08:00:07;;;;;;;8.93;3.63;;;12.80;90.00;;;;;;4981919;28;20170;-77
2022/07/20 08:02:35;;;;;;;4.83;3.53;;;12.90;90.00;;;;;;4985590;28;20183;-77
2022/07/20 08:05:02;;;;;;;7.17;3.37;;;12.80;90.00;;;;;;4993578;28;20543;-78
2022/07/20 08:07:36;;;;;;;6.90;3.40;;;12.90;90.10;;;;;;4995260;28;20209;-75
2022/07/20 08:10:05;;;;;;;7.13;4.23;;;12.90;90.40;;;;;;4988166;28;20261;-76
2022/07/20 08:12:32;;;;;;;9.63;3.97;;;12.90;90.30;;;;;;4994395;28;20252;-81
2022/07/20 08:14:59;;;;;;;6.80;3.37;;;12.90;90.50;;;;;;4994595;28;20206;-81
2022/07/20 08:17:27;;;;;;;9.30;3.60;;;12.80;90.40;;;;;;4993362;28;20181;-80
2022/07/20 08:19:54;;;;;;;6.97;3.43;;;12.80;90.40;;;;;;4994332;28;20193;-80
2022/07/20 08:22:21;;;;;;;9.47;4.30;;;12.80;90.60;;;;;;4992253;28;20533;-75
2022/07/20 08:24:49;;;;;;;9.30;4.93;;;12.80;90.80;;;;;;4986294;28;20189;-77
2022/07/20 08:27:16;;;;;;;9.33;4.27;;;12.80;91.00;;;;;;4995124;28;20241;-75
2022/07/20 08:29:45;;;;;;;9.27;4.57;;;12.70;91.10;;;;;;4994831;28;20174;-80
2022/07/20 08:32:12;;;;;;;8.47;4.13;;;12.70;91.30;;;;;;4995126;28;20362;-79
2022/07/20 08:34:40;;;;;;;8.37;4.47;;;12.60;91.30;;;;;;4994929;28;20313;-75
2022/07/20 08:37:07;;;;;;;8.87;4.23;;;12.70;91.30;;;;;;4994850;28;20186;-79
2022/07/20 08:39:35;;;;;;;9.90;4.07;;;12.60;91.30;;;;;;4989431;28;20178;-78
2022/07/20 08:42:02;;;;;;;11.83;4.80;;;12.60;91.40;;;;;;4994545;28;20240;-79
2022/07/20 08:44:30;;;;;;;5.27;4.10;;;12.60;91.50;;;;;;4994532;28;20544;-77
2022/07/20 08:46:57;;;;;;;9.47;4.23;;;12.60;91.60;;;;;;4995045;28;20189;-79
2022/07/20 08:49:26;;;;;;;5.80;4.20;;;12.70;91.60;;;;;;4994440;28;20657;-80
2022/07/20 08:51:53;;;;;;;7.80;4.70;;;12.70;91.60;;;;;;4978699;28;20182;-77
2022/07/20 08:54:21;;;;;;;7.37;4.20;;;12.70;91.70;;;;;;4995016;28;20220;-78
2022/07/20 08:56:48;;;;;;;9.47;5.13;;;12.70;91.70;;;;;;4994751;28;20185;-74
2022/07/20 08:59:15;;;;;;;9.03;5.67;;;12.70;91.50;;;;;;4982455;28;20221;-75
2022/07/20 09:02:07;;;;;;;14.07;8.10;;;12.60;91.70;;;;;;4994894;28;20261;-78
2022/07/20 09:04:57;;;;;;;11.00;7.10;;;12.70;91.60;;;;;;4993492;28;22142;-74
2022/07/20 09:07:42;;;;;;;11.43;7.17;;;12.50;91.60;;;;;;4994144;28;20197;-78
2022/07/20 09:10:13;;;;;;;13.50;8.00;;;12.50;91.60;;;;;;4994037;28;20200;-75
2022/07/20 09:12:59;;;;;;;16.40;8.20;;;12.50;91.90;;;;;;4993692;28;20188;-78
2022/07/20 09:15:27;;;;;;;20.30;8.53;;;12.50;91.90;;;;;;4988238;28;20190;-76
2022/07/20 09:18:14;;;;;;;11.67;7.83;;;12.50;91.80;;;;;;4994108;28;20258;-75
2022/07/20 09:20:55;;;;;;;9.90;6.63;;;12.40;91.80;;;;;;4992412;28;20200;-78
2022/07/20 09:23:27;;;;;;;10.33;6.10;;;12.30;91.90;;;;;;4989935;28;20317;-78
2022/07/20 09:26:05;;;;;;;16.30;7.40;;;12.30;91.90;;;;;;4984562;28;20647;-77
2022/07/20 09:28:40;;;;;;;11.07;6.53;;;12.30;91.90;;;;;;4986139;28;20187;-76
2022/07/20 09:31:16;;;;;;;9.67;7.00;;;12.30;92.00;;;;;;4992592;28;20580;-77
2022/07/20 09:33:53;;;;;;;10.17;6.30;;;12.30;92.00;;;;;;4992660;28;20224;-78
2022/07/20 09:36:26;;;;;;;8.83;6.20;;;12.20;92.00;;;;;;4993931;28;20170;-78
2022/07/20 09:38:53;;;;;;;12.93;7.10;;;12.10;92.00;;;;;;4993069;28;20586;-78
2022/07/20 09:41:33;;;;;;;13.00;6.90;;;12.10;92.20;;;;;;4981128;28;20680;-74
2022/07/20 09:44:04;;;;;;;9.03;6.43;;;12.10;92.30;;;;;;4987821;28;20214;-76
2022/07/20 09:46:34;;;;;;;10.07;7.17;;;12.20;92.50;;;;;;4989029;28;20178;-76
2022/07/20 09:49:10;;;;;;;12.27;8.70;;;12.20;92.50;;;;;;4994011;28;20702;-77
2022/07/20 09:51:42;;;;;;;15.17;11.70;;;12.20;92.40;;;;;;4993768;28;20204;-76
2022/07/20 09:54:18;;;;;;;13.33;9.73;;;12.20;92.50;;;;;;4993911;28;20299;-75
2022/07/20 09:56:48;;;;;;;10.50;9.23;;;12.10;92.50;;;;;;4982976;28;20223;-76
2022/07/20 09:59:16;;;;;;;10.53;8.73;;;12.10;92.40;;;;;;4979439;28;20222;-77
2022/07/20 10:01:49;;;;;;;12.43;9.20;;;12.10;92.60;;;;;;4993715;28;20177;-77
2022/07/20 10:04:18;;;;;;;12.83;8.73;;;12.10;92.70;;;;;;4991988;28;20660;-76
2022/07/20 10:06:49;;;;;;;9.83;7.10;;;12.00;92.50;;;;;;4989669;28;20268;-78
2022/07/20 10:09:17;;;;;;;12.73;6.60;;;11.90;92.40;;;;;;4989671;28;20659;-75
2022/07/20 10:11:45;;;;;;;8.17;6.17;;;11.90;92.40;;;;;;4992836;28;20185;-77
2022/07/20 10:14:16;;;;;;;8.93;6.30;;;11.90;92.50;;;;;;4992202;28;20225;-77
2022/07/20 10:16:55;;;;;;;9.47;6.17;;;11.90;92.40;;;;;;4992093;28;20240;-75
2022/07/20 10:19:46;;;;;;;11.10;6.37;;;11.90;92.40;;;;;;4984195;28;20188;-77
2022/07/20 10:22:13;;;;;;;8.30;6.57;;;11.80;92.30;;;;;;4992189;28;20193;-77
2022/07/20 10:24:43;;;;;;;10.23;6.73;;;11.90;92.40;;;;;;4993529;28;20222;-77
2022/07/20 10:27:16;;;;;;;12.83;7.43;;;11.90;92.30;;;;;;4992830;28;20648;-78
2022/07/20 10:29:48;;;;;;;9.37;6.60;;;11.90;92.30;;;;;;4993061;28;20213;-77
2022/07/20 10:32:22;;;;;;;10.13;6.60;;;11.80;92.40;;;;;;4997302;28;20233;-77
2022/07/20 10:35:04;;;;;;;12.17;7.17;;;11.90;92.50;;;;;;5008657;28;20205;-78
2022/07/20 10:37:45;;;;;;;10.73;7.17;;;11.90;92.40;;;;;;5006113;28;20581;-77
2022/07/20 10:40:22;;;;;;;15.10;7.67;;;12.00;92.30;;;;;;5020743;28;20192;-78
2022/07/20 10:42:54;;;;;;;9.13;7.40;;;12.00;92.40;;;;;;5010056;28;20230;-79
2022/07/20 10:45:23;;;;;;;8.20;7.40;;;12.00;92.40;;;;;;5012659;28;20177;-78
2022/07/20 10:47:55;;;;;;;9.73;7.23;;;12.00;92.30;;;;;;5010720;28;20177;-79
2022/07/20 10:50:39;;;;;;;8.40;7.63;;;12.00;92.40;;;;;;5006943;28;20185;-79
2022/07/20 10:53:15;;;;;;;12.87;8.20;;;12.00;92.50;;;;;;4998968;28;20515;-80
2022/07/20 10:55:43;;;;;;;13.03;9.83;;;12.00;92.50;;;;;;5011922;28;20264;-80
2022/07/20 10:58:20;;;;;;;10.00;7.97;;;12.00;92.70;;;;;;5005740;28;20232;-80
2022/07/20 11:00:57;;;;;;;8.43;7.63;;;12.00;92.50;;;;;;5011131;28;20307;-80
2022/07/20 11:03:30;;;;;;;11.53;8.10;;;12.00;92.50;;;;;;5011859;28;20181;-80
2022/07/20 11:06:02;;;;;;;7.67;6.97;;;12.00;92.60;;;;;;5011201;28;20177;-80
2022/07/20 11:08:30;;;;;;;11.60;9.77;;;12.00;92.70;;;;;;5012517;28;20176;-80
2022/07/20 11:10:58;;;;;;;15.13;9.97;;;12.00;92.60;;;;;;5009722;28;20184;-80
2022/07/20 11:13:25;;;;;;;14.00;8.87;;;12.00;92.50;;;;;;5012424;28;20212;-78
2022/07/20 11:15:57;;;;;;;9.67;8.57;;;11.90;92.50;;;;;;4997578;28;20542;-80
2022/07/20 11:18:28;;;;;;;14.43;9.77;;;11.90;92.60;;;;;;5008278;28;20189;-78
2022/07/20 11:21:09;;;;;;;15.63;10.80;;;11.90;92.60;;;;;;5010633;28;20243;-78
2022/07/20 11:23:43;;;;;;;11.60;10.37;;;11.90;92.60;;;;;;4999434;28;20183;-80
2022/07/20 11:26:11;;;;;;;14.20;9.43;;;11.90;92.70;;;;;;5009591;28;20208;-81
2022/07/20 11:28:45;;;;;;;12.10;9.90;;;11.80;92.70;;;;;;4994305;28;20185;-80
2022/07/20 11:31:12;;;;;;;11.20;9.30;;;11.80;92.70;;;;;;5014044;28;20228;-78
2022/07/20 11:33:45;;;;;;;9.70;8.70;;;11.80;92.80;;;;;;4993860;28;20232;-80
2022/07/20 11:36:15;;;;;;;11.13;9.13;;;11.90;92.80;;;;;;5005225;28;20181;-80
2022/07/20 11:38:53;;;;;;;12.63;9.30;;;11.90;92.90;;;;;;4992474;28;20232;-79
2022/07/20 11:41:24;;;;;;;11.77;8.60;;;11.90;92.90;;;;;;5010285;28;20169;-75
2022/07/20 11:43:52;;;;;;;10.97;8.63;;;12.00;93.00;;;;;;5008214;28;20184;-79
2022/07/20 11:46:24;;;;;;;9.93;8.50;;;12.00;93.00;;;;;;5010362;28;20264;-78
2022/07/20 11:49:03;;;;;;;10.67;9.20;;;12.00;93.00;;;;;;5003641;28;20174;-78
2022/07/20 11:51:35;;;;;;;9.77;8.63;;;12.00;92.90;;;;;;5005629;28;20177;-78
2022/07/20 11:54:07;;;;;;;9.17;7.83;;;12.00;92.90;;;;;;5015078;28;20213;-77
2022/07/20 11:56:37;;;;;;;14.80;8.53;;;12.00;92.90;;;;;;5010838;28;20266;-77
2022/07/20 11:59:06;;;;;;;10.93;8.33;;;11.90;92.80;;;;;;5003679;28;20184;-75
2022/07/20 12:01:36;;;;;;;10.50;8.57;;;11.90;92.90;;;;;;5011004;28;20756;-80
2022/07/20 12:04:10;;;;;;;9.50;8.60;;;11.90;92.80;;;;;;5004647;28;20169;-79
2022/07/20 12:06:39;;;;;;;10.17;9.27;;;11.80;92.80;;;;;;5006535;28;20181;-74
2022/07/20 12:09:21;;;;;;;10.63;8.50;;;11.80;92.80;;;;;;5014823;28;20272;-76
2022/07/20 12:11:58;;;;;;;9.93;8.57;;;11.80;92.80;;;;;;5003643;28;20192;-78
2022/07/20 12:14:45;;;;;;;13.03;8.43;;;11.80;92.90;;;;;;5011320;28;20212;-77
2022/07/20 12:17:30;;;;;;;10.93;8.80;;;11.80;92.90;;;;;;5011176;28;20268;-78
2022/07/20 12:19:58;;;;;;;10.27;9.27;;;11.80;93.00;;;;;;5008706;28;20205;-76
2022/07/20 12:22:31;;;;;;;12.17;8.60;;;11.80;93.00;;;;;;5012458;28;20636;-79
2022/07/20 12:25:10;;;;;;;9.53;8.60;;;11.90;93.00;;;;;;5014168;28;20280;-79
2022/07/20 12:27:39;;;;;;;9.90;8.90;;;11.80;92.90;;;;;;5014285;28;20188;-78
2022/07/20 12:30:34;;;;;;;10.40;8.93;;;11.80;92.90;;;;;;5014175;28;20217;-78
2022/07/20 12:33:15;;;;;;;11.27;9.03;;;11.80;92.90;;;;;;5012605;28;20200;-75
2022/07/20 12:35:48;;;;;;;10.50;9.40;;;11.80;92.90;;;;;;5012950;28;20204;-77
2022/07/20 12:38:17;;;;;;;11.53;9.23;;;11.70;93.00;;;;;;5012821;28;20189;-78
2022/07/20 12:40:46;;;;;;;14.43;11.00;;;11.80;93.10;;;;;;5009465;28;20189;-77
2022/07/20 12:43:31;;;;;;;11.40;10.20;;;11.80;93.20;;;;;;5010753;28;20626;-78
2022/07/20 12:46:02;;;;;;;11.93;10.70;;;11.80;93.20;;;;;;5004537;28;20212;-78
2022/07/20 12:48:30;;;;;;;11.37;10.10;;;11.80;93.20;;;;;;5012397;28;20662;-78
2022/07/20 12:50:58;;;;;;;10.40;9.40;;;11.90;93.30;;;;;;5013302;28;20197;-78
2022/07/20 12:53:27;;;;;;;12.07;10.97;;;11.90;93.30;;;;;;5004782;28;20292;-77
2022/07/20 12:55:55;;;;;;;11.20;10.23;;;11.90;93.30;;;;;;5012786;28;20185;-77
2022/07/20 12:58:22;;;;;;;13.63;9.87;;;11.90;93.20;;;;;;5000045;28;20193;-77